Bloomer, Wisconsin
Current Conditions -  °F | °C
As of 10:35 PM on Saturday 22 Nov 2014 (Local Time) from KY23 Reporting Station
Moderate Fog Moderate Fog  
Wind Chill: -2°   Ceiling: 200
Heat Index:   Visibility: 0.5mi
Dew Point:   Wind: 10mph
Humidity: 99%   Direction: 100°E
Pressure: 29.6"   Gusts: NA
Location:  45.1°N, 91.49°W
Report Text: KY23 230435Z AUTO 10009KT 1/2SM FG OVC002 02/02 A2960 RMK AO2 T00200019
Loading
Personal Weather Stations






























Interactive Weather Map New forecast layout! Learn more

10-Day Weather Forecast

Advertisements
Track Severe Weather on mobile